createdAt,value
2023-05-21T00:02:19.908Z,2.10
2023-05-21T00:04:47.456Z,3.80
2023-05-21T00:07:15.269Z,5.03
2023-05-21T00:09:41.789Z,3.35
2023-05-21T00:12:09.194Z,3.22
2023-05-21T00:14:35.806Z,3.45
2023-05-21T00:17:02.209Z,3.67
2023-05-21T00:19:28.729Z,2.28
2023-05-21T00:21:55.961Z,3.13
2023-05-21T00:24:22.399Z,1.92
2023-05-21T00:26:48.798Z,2.30
2023-05-21T00:29:15.312Z,3.05
2023-05-21T00:31:41.758Z,3.30
2023-05-21T00:34:08.301Z,3.00
2023-05-21T00:36:34.801Z,2.58
2023-05-21T00:39:02.367Z,2.47
2023-05-21T00:41:30.162Z,2.80
2023-05-21T00:43:57.150Z,3.53
2023-05-21T00:46:24.019Z,1.80
2023-05-21T00:48:51.033Z,3.25
2023-05-21T00:51:18.576Z,2.90
2023-05-21T00:53:45.877Z,2.00
2023-05-21T00:56:12.591Z,1.85
2023-05-21T00:58:40.533Z,3.63
2023-05-21T01:01:07.200Z,1.92
2023-05-21T01:03:38.677Z,2.58
2023-05-21T01:06:06.369Z,4.30
2023-05-21T01:08:34.854Z,2.42
2023-05-21T01:11:03.258Z,2.40
2023-05-21T01:13:31.383Z,4.43
2023-05-21T01:15:59.194Z,2.95
2023-05-21T01:18:26.569Z,2.00
2023-05-21T01:20:53.698Z,1.83
2023-05-21T01:23:20.902Z,3.65
2023-05-21T01:25:47.737Z,3.70
2023-05-21T01:28:14.315Z,3.78
2023-05-21T01:30:42.740Z,1.92
2023-05-21T01:33:38.848Z,2.60
2023-05-21T01:36:15.820Z,2.50
2023-05-21T01:38:57.269Z,2.58
2023-05-21T01:41:28.627Z,2.15
2023-05-21T01:43:56.729Z,4.80
2023-05-21T01:46:27.579Z,2.10
2023-05-21T01:48:56.146Z,3.70
2023-05-21T01:51:23.941Z,1.90
2023-05-21T01:53:50.536Z,1.90
2023-05-21T01:56:16.950Z,1.85
2023-05-21T01:58:43.972Z,2.10
2023-05-21T02:01:11.783Z,2.00
2023-05-21T02:03:38.696Z,2.30
2023-05-21T02:06:05.447Z,1.90
2023-05-21T02:08:31.865Z,2.40
2023-05-21T02:10:58.310Z,3.53
2023-05-21T02:13:26.601Z,2.20
2023-05-21T02:15:54.754Z,2.00
2023-05-21T02:18:22.060Z,2.50
2023-05-21T02:20:48.531Z,2.53
2023-05-21T02:23:14.985Z,2.72
2023-05-21T02:25:41.405Z,3.25
2023-05-21T02:28:07.817Z,1.75
2023-05-21T02:30:34.478Z,2.25
2023-05-21T02:33:01.068Z,2.22
2023-05-21T02:35:27.832Z,2.20
2023-05-21T02:37:58.955Z,3.67
2023-05-21T02:40:25.469Z,2.30
2023-05-21T02:42:51.898Z,1.83
2023-05-21T02:45:18.316Z,2.08
2023-05-21T02:47:44.795Z,3.25
2023-05-21T02:50:13.973Z,2.90
2023-05-21T02:52:41.500Z,2.38
2023-05-21T02:55:08.386Z,1.98
2023-05-21T02:57:34.818Z,2.33
2023-05-21T03:00:01.251Z,1.95
2023-05-21T03:02:27.811Z,2.90
2023-05-21T03:04:54.587Z,2.28
2023-05-21T03:07:21.784Z,2.47
2023-05-21T03:09:48.188Z,2.20
2023-05-21T03:12:14.595Z,3.47
2023-05-21T03:14:43.957Z,2.33
2023-05-21T03:17:13.941Z,2.53
2023-05-21T03:19:41.807Z,3.42
2023-05-21T03:22:08.232Z,1.98
2023-05-21T03:24:35.205Z,2.40
2023-05-21T03:27:01.706Z,2.92
2023-05-21T03:29:28.837Z,2.08
2023-05-21T03:31:55.729Z,1.92
2023-05-21T03:34:22.315Z,2.47
2023-05-21T03:36:49.759Z,1.95
2023-05-21T03:39:16.448Z,1.85
2023-05-21T03:41:43.214Z,2.47
2023-05-21T03:44:09.856Z,2.10
2023-05-21T03:46:36.401Z,2.03
2023-05-21T03:49:02.872Z,3.20
2023-05-21T03:51:30.672Z,2.03
2023-05-21T03:53:58.959Z,2.25
2023-05-21T03:56:26.259Z,1.88
2023-05-21T03:58:53.018Z,1.70
2023-05-21T04:01:19.774Z,2.70
2023-05-21T04:03:46.628Z,3.13
2023-05-21T04:06:13.496Z,1.95
2023-05-21T04:08:39.991Z,1.65
2023-05-21T04:11:06.450Z,2.30
2023-05-21T04:13:32.986Z,2.33
2023-05-21T04:15:59.741Z,2.47
2023-05-21T04:18:26.729Z,2.08
2023-05-21T04:20:53.737Z,2.67
2023-05-21T04:23:20.270Z,2.60
2023-05-21T04:25:50.508Z,1.90
2023-05-21T04:28:19.967Z,1.75
2023-05-21T04:30:47.597Z,2.35
2023-05-21T04:33:17.814Z,2.05
2023-05-21T04:35:46.185Z,2.03
2023-05-21T04:38:12.598Z,2.50
2023-05-21T04:40:39.028Z,1.70
2023-05-21T04:43:05.526Z,3.78
2023-05-21T04:45:31.931Z,1.80
2023-05-21T04:48:00.715Z,2.45
2023-05-21T04:50:27.264Z,2.28
2023-05-21T04:52:54.729Z,1.90
2023-05-21T04:55:21.182Z,1.90
2023-05-21T04:57:47.626Z,3.28
2023-05-21T05:00:14.165Z,1.77
2023-05-21T05:02:40.621Z,1.60
2023-05-21T05:05:07.323Z,2.38
2023-05-21T05:07:33.754Z,3.30
2023-05-21T05:10:00.332Z,2.17
2023-05-21T05:12:26.735Z,2.55
2023-05-21T05:14:53.168Z,2.55
2023-05-21T05:17:19.856Z,1.90
2023-05-21T05:19:46.232Z,2.53
2023-05-21T05:22:13.617Z,2.58
2023-05-21T05:24:40.165Z,3.00
2023-05-21T05:27:06.576Z,2.90
2023-05-21T05:29:32.994Z,2.90
2023-05-21T05:31:59.434Z,2.13
2023-05-21T05:34:25.874Z,1.80
2023-05-21T05:36:52.267Z,2.00
2023-05-21T05:39:18.657Z,2.38
2023-05-21T05:41:45.058Z,2.13
2023-05-21T05:44:11.425Z,3.08
2023-05-21T05:46:37.959Z,2.50
2023-05-21T05:49:04.563Z,2.28
2023-05-21T05:51:31.614Z,2.03
2023-05-21T05:53:58.161Z,1.95
2023-05-21T05:56:24.510Z,2.08
2023-05-21T05:58:51.021Z,3.45
2023-05-21T06:01:17.649Z,2.30
2023-05-21T06:03:44.381Z,3.58
2023-05-21T06:06:11.579Z,1.77
2023-05-21T06:08:38.376Z,2.03
2023-05-21T06:11:04.905Z,2.35
2023-05-21T06:13:32.063Z,2.45
2023-05-21T06:15:58.473Z,2.42
2023-05-21T06:18:24.910Z,2.58
2023-05-21T06:20:51.389Z,2.53
2023-05-21T06:23:17.889Z,2.35
2023-05-21T06:25:44.318Z,2.28
2023-05-21T06:28:10.777Z,2.25
2023-05-21T06:30:37.230Z,2.45
2023-05-21T06:33:03.760Z,2.75
2023-05-21T06:35:30.480Z,2.65
2023-05-21T06:37:56.868Z,1.98
2023-05-21T06:40:23.289Z,2.08
2023-05-21T06:42:49.757Z,2.28
2023-05-21T06:45:16.184Z,3.22
2023-05-21T06:47:42.605Z,2.65
2023-05-21T06:50:09.413Z,4.75
2023-05-21T06:52:35.943Z,2.25
2023-05-21T06:55:02.352Z,6.60
2023-05-21T06:57:28.798Z,3.53
2023-05-21T06:59:55.246Z,2.88
2023-05-21T07:02:21.766Z,2.88
2023-05-21T07:04:48.248Z,2.42
2023-05-21T07:07:14.659Z,3.72
2023-05-21T07:09:41.205Z,2.53
2023-05-21T07:12:07.873Z,2.03
2023-05-21T07:14:34.280Z,2.75
2023-05-21T07:17:00.896Z,3.17
2023-05-21T07:19:27.520Z,4.53
2023-05-21T07:21:54.008Z,3.45
2023-05-21T07:24:21.168Z,2.08
2023-05-21T07:26:47.756Z,4.68
2023-05-21T07:29:14.195Z,1.98
2023-05-21T07:31:40.895Z,3.35
2023-05-21T07:34:07.284Z,2.28
2023-05-21T07:36:33.766Z,3.03
2023-05-21T07:39:00.892Z,3.25
2023-05-21T07:41:27.318Z,2.47
2023-05-21T07:43:53.782Z,3.92
2023-05-21T07:46:20.529Z,3.38
2023-05-21T07:48:48.366Z,3.50
2023-05-21T07:51:15.015Z,3.67
2023-05-21T07:53:41.674Z,5.35
2023-05-21T07:56:08.203Z,3.05
2023-05-21T07:58:35.221Z,3.05
2023-05-21T08:01:01.845Z,5.45
2023-05-21T08:03:30.916Z,4.32
2023-05-21T08:05:57.605Z,3.15
2023-05-21T08:08:24.337Z,3.35
2023-05-21T08:10:51.030Z,3.22
2023-05-21T08:13:18.014Z,3.47
2023-05-21T08:15:44.565Z,3.83
2023-05-21T08:18:12.005Z,5.30
2023-05-21T08:20:38.623Z,4.45
2023-05-21T08:23:05.065Z,5.38
2023-05-21T08:25:31.746Z,3.55
2023-05-21T08:27:58.234Z,3.10
2023-05-21T08:30:24.699Z,2.58
2023-05-21T08:32:51.129Z,3.03
2023-05-21T08:35:17.568Z,5.03
2023-05-21T08:37:44.053Z,2.45
2023-05-21T08:40:12.200Z,5.07
2023-05-21T08:42:47.136Z,2.67
2023-05-21T08:45:15.135Z,3.75
2023-05-21T08:47:46.617Z,3.08
2023-05-21T08:50:20.820Z,2.45
2023-05-21T08:52:47.420Z,3.05
2023-05-21T08:55:14.087Z,3.30
2023-05-21T08:57:44.589Z,4.95
2023-05-21T09:00:11.887Z,3.00
2023-05-21T09:02:40.964Z,2.60
2023-05-21T09:05:09.763Z,3.78
2023-05-21T09:07:47.038Z,6.00
2023-05-21T09:10:14.148Z,3.05
2023-05-21T09:12:40.808Z,3.75
2023-05-21T09:15:07.898Z,3.15
2023-05-21T09:17:34.479Z,6.85
2023-05-21T09:20:14.930Z,2.80
2023-05-21T09:22:46.328Z,2.70
2023-05-21T09:25:15.476Z,3.55
2023-05-21T09:27:42.329Z,3.50
2023-05-21T09:30:14.460Z,5.35
2023-05-21T09:32:41.780Z,7.32
2023-05-21T09:35:12.914Z,4.55
2023-05-21T09:37:40.099Z,4.90
2023-05-21T09:40:16.378Z,3.95
2023-05-21T09:42:46.029Z,3.75
2023-05-21T09:45:13.211Z,4.45
2023-05-21T09:47:44.333Z,4.88
2023-05-21T09:50:12.182Z,4.35
2023-05-21T09:52:41.922Z,4.88
2023-05-21T09:55:12.819Z,3.67
2023-05-21T09:57:48.055Z,3.63
2023-05-21T10:02:49.706Z,3.15
2023-05-21T10:05:17.484Z,4.63
2023-05-21T10:07:56.151Z,5.88
2023-05-21T10:10:23.348Z,7.38
2023-05-21T10:12:58.738Z,3.42
2023-05-21T10:15:27.804Z,4.82
2023-05-21T10:17:56.260Z,4.43
2023-05-21T10:20:23.000Z,4.63
2023-05-21T10:22:50.612Z,4.40
2023-05-21T10:25:17.450Z,4.22
2023-05-21T10:27:44.202Z,3.80
2023-05-21T10:30:11.566Z,4.55
2023-05-21T10:32:40.148Z,2.85
2023-05-21T10:35:08.868Z,5.35
2023-05-21T10:37:35.702Z,4.40
2023-05-21T10:40:02.260Z,6.85
2023-05-21T10:42:31.386Z,2.97
2023-05-21T10:45:03.893Z,3.22
2023-05-21T10:47:54.339Z,7.07
2023-05-21T10:50:46.721Z,3.25
2023-05-21T10:53:32.912Z,3.97
2023-05-21T10:56:32.151Z,2.95
2023-05-21T10:59:35.883Z,2.97
2023-05-21T11:02:03.804Z,4.43
2023-05-21T11:04:30.440Z,3.85
2023-05-21T11:06:58.824Z,3.80
2023-05-21T11:09:26.639Z,6.47
2023-05-21T11:11:58.159Z,3.55
2023-05-21T11:14:36.433Z,3.72
2023-05-21T11:17:09.771Z,3.17
2023-05-21T11:19:41.358Z,4.90
2023-05-21T11:22:29.006Z,3.20
2023-05-21T11:24:56.416Z,3.50
2023-05-21T11:27:40.948Z,4.65
2023-05-21T11:30:18.101Z,5.63
2023-05-21T11:33:13.892Z,5.47
2023-05-21T11:35:46.503Z,3.45
2023-05-21T11:38:12.935Z,5.55
2023-05-21T11:40:50.516Z,5.07
2023-05-21T11:43:18.507Z,4.43
2023-05-21T11:45:47.163Z,5.55
2023-05-21T11:48:14.207Z,5.47
2023-05-21T11:50:42.385Z,4.82
2023-05-21T11:53:09.152Z,6.93
2023-05-21T11:55:43.526Z,3.72
2023-05-21T11:58:16.694Z,5.15
2023-05-21T12:00:43.160Z,5.60
2023-05-21T12:03:14.188Z,5.97
2023-05-21T12:05:48.206Z,3.33
2023-05-21T12:08:25.244Z,3.90
2023-05-21T12:10:58.467Z,4.93
2023-05-21T12:13:26.025Z,5.50
2023-05-21T12:15:54.353Z,6.32
2023-05-21T12:18:21.573Z,6.00
2023-05-21T12:20:48.208Z,6.82
2023-05-21T12:23:23.978Z,4.90
2023-05-21T12:25:51.618Z,5.38
2023-05-21T12:28:18.198Z,5.10
2023-05-21T12:30:44.744Z,4.05
2023-05-21T12:33:12.167Z,5.22
2023-05-21T12:35:38.686Z,5.38
2023-05-21T12:38:06.940Z,6.00
2023-05-21T12:40:38.277Z,5.05
2023-05-21T12:43:06.016Z,7.45
2023-05-21T12:45:33.259Z,5.55
2023-05-21T12:48:03.281Z,4.70
2023-05-21T12:50:29.967Z,6.38
2023-05-21T12:52:58.363Z,7.65
2023-05-21T12:55:28.562Z,5.40
2023-05-21T12:58:06.080Z,8.02
2023-05-21T13:00:33.127Z,6.00
2023-05-21T13:03:01.022Z,5.97
2023-05-21T13:05:27.583Z,4.65
2023-05-21T13:07:54.069Z,5.63
2023-05-21T13:10:20.828Z,8.30
2023-05-21T13:12:47.194Z,7.32
2023-05-21T13:15:14.530Z,6.50
2023-05-21T13:17:41.102Z,5.57
2023-05-21T13:20:18.218Z,6.72
2023-05-21T13:22:46.936Z,6.53
2023-05-21T13:25:21.542Z,5.93
2023-05-21T13:27:49.476Z,4.90
2023-05-21T13:30:16.024Z,4.80
2023-05-21T13:32:43.414Z,4.70
2023-05-21T13:35:11.289Z,6.10
2023-05-21T13:37:39.499Z,6.93
2023-05-21T13:40:07.898Z,4.95
2023-05-21T13:42:35.388Z,5.40
2023-05-21T13:45:02.084Z,5.22
2023-05-21T13:47:28.606Z,6.80
2023-05-21T13:49:55.280Z,6.25
2023-05-21T13:52:21.833Z,6.35
2023-05-21T13:54:48.269Z,4.55
2023-05-21T13:57:15.128Z,7.45
2023-05-21T13:59:41.770Z,6.95
2023-05-21T14:02:09.357Z,5.85
2023-05-21T14:04:38.957Z,4.65
2023-05-21T14:07:06.439Z,5.93
2023-05-21T14:09:33.064Z,7.05
2023-05-21T14:11:59.567Z,7.25
2023-05-21T14:14:25.997Z,7.10
2023-05-21T14:16:52.869Z,5.07
2023-05-21T14:19:19.567Z,6.78
2023-05-21T14:21:46.039Z,5.05
2023-05-21T14:24:12.488Z,5.63
2023-05-21T14:26:41.214Z,8.30
2023-05-21T14:29:07.804Z,6.63
2023-05-21T14:31:34.281Z,7.72
2023-05-21T14:34:02.751Z,6.32
2023-05-21T14:36:29.719Z,5.80
2023-05-21T14:38:56.235Z,6.75
2023-05-21T14:41:27.125Z,7.93
2023-05-21T14:43:54.089Z,8.25
2023-05-21T14:46:20.675Z,4.35
2023-05-21T14:48:47.223Z,6.20
2023-05-21T14:51:14.304Z,6.18
2023-05-21T14:53:41.014Z,5.63
2023-05-21T14:56:07.974Z,4.90
2023-05-21T14:58:34.449Z,5.90
2023-05-21T15:01:01.016Z,4.82
2023-05-21T15:03:27.715Z,5.60
2023-05-21T15:05:54.227Z,5.93
2023-05-21T15:08:20.659Z,4.90
2023-05-21T15:10:47.110Z,6.22
2023-05-21T15:13:13.536Z,7.07
2023-05-21T15:15:40.220Z,6.18
2023-05-21T15:18:06.979Z,5.75
2023-05-21T15:20:33.533Z,7.07
2023-05-21T15:23:12.714Z,10.82
2023-05-21T15:25:42.941Z,7.85
2023-05-21T15:28:09.383Z,6.05
2023-05-21T15:30:35.795Z,5.63
2023-05-21T15:33:02.213Z,8.45
2023-05-21T15:35:28.756Z,10.38
2023-05-21T15:37:55.354Z,8.73
2023-05-21T15:40:21.882Z,11.00
2023-05-21T15:42:48.271Z,10.38
2023-05-21T15:45:14.677Z,13.63
2023-05-21T15:47:42.683Z,12.43
2023-05-21T15:50:10.337Z,11.77
2023-05-21T15:52:37.023Z,11.85
2023-05-21T15:55:03.509Z,20.77
2023-05-21T15:57:30.232Z,12.88
2023-05-21T15:59:56.682Z,14.45
2023-05-21T16:02:23.271Z,16.60
2023-05-21T16:04:51.745Z,12.80
2023-05-21T16:07:18.749Z,16.90
2023-05-21T16:09:47.627Z,16.58
2023-05-21T16:12:14.052Z,15.70
2023-05-21T16:14:40.565Z,16.60
2023-05-21T16:17:07.179Z,14.68
2023-05-21T16:19:33.631Z,13.23
2023-05-21T16:22:01.539Z,15.15
2023-05-21T16:24:27.956Z,12.23
2023-05-21T16:26:54.450Z,10.32
2023-05-21T16:29:22.069Z,14.52
2023-05-21T16:31:48.826Z,12.43
2023-05-21T16:34:15.747Z,10.60
2023-05-21T16:36:42.598Z,15.00
2023-05-21T16:39:09.110Z,11.18
2023-05-21T16:41:35.534Z,8.43
2023-05-21T16:44:01.980Z,10.05
2023-05-21T16:46:28.492Z,10.73
2023-05-21T16:48:54.906Z,10.07
2023-05-21T16:51:21.316Z,11.55
2023-05-21T16:53:47.697Z,10.32
2023-05-21T16:56:14.101Z,8.77
2023-05-21T16:58:40.688Z,9.43
2023-05-21T17:01:07.182Z,12.32
2023-05-21T17:03:33.828Z,8.82
2023-05-21T17:06:00.572Z,6.97
2023-05-21T17:08:26.979Z,7.03
2023-05-21T17:10:53.460Z,9.18
2023-05-21T17:13:22.516Z,7.88
2023-05-21T17:15:50.891Z,9.90
2023-05-21T17:18:17.494Z,8.95
2023-05-21T17:20:43.936Z,6.55
2023-05-21T17:23:11.673Z,9.85
2023-05-21T17:25:38.490Z,8.07
2023-05-21T17:28:05.363Z,7.07
2023-05-21T17:30:31.791Z,10.88
2023-05-21T17:32:58.386Z,5.38
2023-05-21T17:35:25.020Z,7.25
2023-05-21T17:37:53.286Z,8.02
2023-05-21T17:40:21.326Z,6.45
2023-05-21T17:42:47.995Z,6.57
2023-05-21T17:45:14.442Z,7.93
2023-05-21T17:47:40.941Z,6.22
2023-05-21T17:50:08.288Z,8.02
2023-05-21T17:52:34.779Z,6.07
2023-05-21T17:55:01.872Z,6.10
2023-05-21T17:57:28.595Z,5.20
2023-05-21T17:59:55.539Z,15.70
2023-05-21T18:02:23.471Z,6.15
2023-05-21T18:04:50.054Z,5.70
2023-05-21T18:07:16.585Z,5.80
2023-05-21T18:09:43.074Z,11.80
2023-05-21T18:12:10.910Z,5.97
2023-05-21T18:14:37.321Z,4.80
2023-05-21T18:17:03.951Z,6.88
2023-05-21T18:19:31.281Z,7.85
2023-05-21T18:21:57.813Z,6.20
2023-05-21T18:24:24.312Z,7.03
2023-05-21T18:26:50.798Z,5.78
2023-05-21T18:29:17.202Z,7.38
2023-05-21T18:31:45.198Z,8.55
2023-05-21T18:34:11.762Z,7.43
2023-05-21T18:36:40.800Z,5.53
2023-05-21T18:39:10.420Z,10.10
2023-05-21T18:41:37.396Z,5.78
2023-05-21T18:44:05.945Z,6.85
2023-05-21T18:46:32.479Z,8.38
2023-05-21T18:49:00.023Z,6.28
2023-05-21T18:51:26.506Z,7.38
2023-05-21T18:53:53.201Z,6.75
2023-05-21T18:56:19.694Z,5.82
2023-05-21T18:58:46.287Z,5.45
2023-05-21T19:01:12.871Z,4.57
2023-05-21T19:03:39.343Z,4.88
2023-05-21T19:06:05.875Z,5.90
2023-05-21T19:08:32.316Z,5.93
2023-05-21T19:10:58.801Z,5.18
2023-05-21T19:13:26.212Z,6.13
2023-05-21T19:15:52.783Z,7.25
2023-05-21T19:18:19.294Z,6.88
2023-05-21T19:20:45.921Z,5.82
2023-05-21T19:23:12.507Z,6.63
2023-05-21T19:25:39.142Z,6.40
2023-05-21T19:28:05.691Z,8.13
2023-05-21T19:30:34.889Z,6.10
2023-05-21T19:33:01.861Z,5.75
2023-05-21T19:35:28.584Z,5.78
2023-05-21T19:37:58.986Z,5.38
2023-05-21T19:40:26.090Z,5.57
2023-05-21T19:42:52.638Z,6.88
2023-05-21T19:45:21.295Z,6.78
2023-05-21T19:47:48.009Z,6.25
2023-05-21T19:50:14.466Z,6.25
2023-05-21T19:52:40.984Z,7.70
2023-05-21T19:55:10.090Z,8.45
2023-05-21T19:57:37.005Z,5.50
2023-05-21T20:00:04.808Z,6.95
2023-05-21T20:02:31.432Z,6.13
2023-05-21T20:04:58.944Z,7.10
2023-05-21T20:07:25.511Z,8.45
2023-05-21T20:09:52.390Z,5.75
2023-05-21T20:12:18.940Z,6.47
2023-05-21T20:14:46.897Z,6.05
2023-05-21T20:17:14.562Z,6.40
2023-05-21T20:19:41.260Z,5.03
2023-05-21T20:22:07.787Z,6.88
2023-05-21T20:24:34.266Z,6.22
2023-05-21T20:27:01.532Z,5.70
2023-05-21T20:29:28.841Z,7.80
2023-05-21T20:31:55.444Z,7.10
2023-05-21T20:34:21.900Z,4.57
2023-05-21T20:36:48.491Z,6.10
2023-05-21T20:39:15.388Z,7.30
2023-05-21T20:41:44.753Z,6.95
2023-05-21T20:44:11.761Z,6.03
2023-05-21T20:46:38.554Z,7.05
2023-05-21T20:49:05.823Z,6.30
2023-05-21T20:51:32.413Z,6.80
2023-05-21T20:53:58.925Z,7.30
2023-05-21T20:56:40.060Z,4.75
2023-05-21T20:59:09.302Z,4.78
2023-05-21T21:01:37.889Z,13.95
2023-05-21T21:04:04.893Z,5.88
2023-05-21T21:06:31.700Z,5.28
2023-05-21T21:08:58.305Z,6.80
2023-05-21T21:11:24.843Z,6.20
2023-05-21T21:13:51.774Z,4.55
2023-05-21T21:16:18.349Z,6.25
2023-05-21T21:18:46.868Z,6.30
2023-05-21T21:21:13.540Z,5.03
2023-05-21T21:23:40.176Z,7.70
2023-05-21T21:26:06.681Z,5.25
2023-05-21T21:28:33.070Z,5.97
2023-05-21T21:30:59.562Z,6.70
2023-05-21T21:33:26.738Z,6.47
2023-05-21T21:35:53.293Z,5.78
2023-05-21T21:38:19.656Z,4.95
2023-05-21T21:40:46.055Z,7.72
2023-05-21T21:43:12.457Z,6.47
2023-05-21T21:45:38.921Z,6.00
2023-05-21T21:48:05.866Z,5.35
2023-05-21T21:50:32.344Z,4.28
2023-05-21T21:52:59.879Z,6.38
2023-05-21T21:55:26.457Z,7.45
2023-05-21T21:57:52.841Z,6.05
2023-05-21T22:00:19.526Z,6.65
2023-05-21T22:02:46.604Z,7.82
2023-05-21T22:05:14.937Z,5.25
2023-05-21T22:07:42.662Z,7.78
2023-05-21T22:10:09.521Z,5.00
2023-05-21T22:12:35.945Z,8.05
2023-05-21T22:15:05.157Z,6.82
2023-05-21T22:17:32.748Z,7.30
2023-05-21T22:19:59.771Z,6.10
2023-05-21T22:22:26.592Z,6.38
2023-05-21T22:24:53.784Z,5.93
2023-05-21T22:27:20.866Z,7.10
2023-05-21T22:29:47.579Z,6.43
2023-05-21T22:32:14.093Z,6.07
2023-05-21T22:34:41.839Z,7.75
2023-05-21T22:37:08.323Z,6.25
2023-05-21T22:39:34.686Z,8.25
2023-05-21T22:42:01.403Z,8.80
2023-05-21T22:44:27.900Z,7.68
2023-05-21T22:46:56.414Z,7.60
2023-05-21T22:49:23.024Z,4.97
2023-05-21T22:51:50.974Z,5.35
2023-05-21T22:54:17.577Z,7.82
2023-05-21T22:56:44.937Z,10.40
2023-05-21T22:59:11.472Z,5.13
2023-05-21T23:01:38.280Z,4.38
2023-05-21T23:04:05.025Z,5.05
2023-05-21T23:06:31.777Z,10.63
2023-05-21T23:08:58.170Z,6.30
2023-05-21T23:11:24.708Z,4.72
2023-05-21T23:13:51.218Z,6.45
2023-05-21T23:16:17.666Z,7.55
2023-05-21T23:18:44.156Z,6.63
2023-05-21T23:21:10.633Z,6.32
2023-05-21T23:23:37.086Z,4.93
2023-05-21T23:26:03.476Z,5.63
2023-05-21T23:28:29.862Z,5.57
2023-05-21T23:30:56.329Z,4.45
2023-05-21T23:33:22.804Z,6.68
2023-05-21T23:35:49.208Z,6.38
2023-05-21T23:38:15.594Z,5.60
2023-05-21T23:40:42.078Z,8.40
2023-05-21T23:43:08.512Z,6.55
2023-05-21T23:45:35.055Z,5.88
2023-05-21T23:48:01.592Z,6.45
2023-05-21T23:50:28.043Z,5.75
2023-05-21T23:52:54.574Z,5.60
2023-05-21T23:55:21.090Z,5.05
2023-05-21T23:57:47.471Z,6.82
